Archimede — IXZR — position and weather

sailwx.info

Track history (hours):
 
Tides and Currents Weather Stations Pressure Air Temp Water Temp Dewpoint Dewpoint Depression Visibility Wind Speed Wind Dir Waves Ship Positions

Archimede

Last reported at 2016-Feb-10 21:33 UTC. Time now 2016-Feb-10 22:03 UTC.
Position N 38°08' E 015°31'.

; draft 3.1 m.

Type: Passenger vessel. MMSI: 247054700.

Date/timePositionNaut miles runAvg speedWind from/ knotsBaromVisibWave heightAir tempDewpointWater temp
2016-Feb-10 21:33N 38°08' E 015°31'7 7.5
2016-Feb-10 20:33N 38°13' E 015°38'3 2.7
2016-Feb-10 19:33N 38°11' E 015°37'3 2.7
2016-Feb-10 18:33N 38°10' E 015°34'3 3.4
2016-Feb-10 17:33N 38°12' E 015°37'4 4.1
2016-Feb-10 16:33N 38°09' E 015°33'6 5.7
2016-Feb-10 15:33N 38°13' E 015°38'7 7.5
2016-Feb-10 14:33N 38°08' E 015°31'7 7.4
2016-Feb-10 13:33N 38°13' E 015°38'6 6.2
2016-Feb-10 12:33N 38°09' E 015°33'5 4.8
2016-Feb-10 11:33N 38°13' E 015°36'4 3.8
2016-Feb-10 10:33N 38°09' E 015°34'2 1.8
2016-Feb-10 09:33N 38°11' E 015°35'1 0.6
2016-Feb-10 08:33N 38°10' E 015°35'1 0.7
2016-Feb-10 07:33N 38°10' E 015°34'4 0.8
2016-Feb-10 02:08N 38°13' E 015°38'5 8.6
2016-Feb-10 01:33N 38°09' E 015°34'4 4.4
2016-Feb-10 00:33N 38°13' E 015°37'6 5.6
2016-Feb-09 23:33N 38°08' E 015°33'5 5.0
2016-Feb-09 22:33N 38°13' E 015°36'5 5.4
2016-Feb-09 21:33N 38°08' E 015°32'7 6.8
2016-Feb-09 20:33N 38°13' E 015°38'4 3.8
2016-Feb-09 19:33N 38°10' E 015°35'1 1.0
2016-Feb-09 18:33N 38°11' E 015°35'1 1.1
2016-Feb-09 17:33N 38°11' E 015°36'2 2.3
2016-Feb-09 16:33N 38°09' E 015°34'5 5.1
2016-Feb-09 15:33N 38°13' E 015°38'7 7.3
2016-Feb-09 14:33N 38°08' E 015°31'7 7.6
2016-Feb-09 13:33N 38°13' E 015°38'7 6.8
2016-Feb-09 12:33N 38°08' E 015°32'6 6.1
2016-Feb-09 11:33N 38°13' E 015°37'5 4.7
2016-Feb-09 10:33N 38°09' E 015°34'3 2.8
2016-Feb-09 09:33N 38°12' E 015°35'2 2.0
2016-Feb-09 08:33N 38°09' E 015°36'1 1.3
2016-Feb-09 07:33N 38°10' E 015°34'5 4.7
2016-Feb-09 06:32N 38°13' E 015°38'0 0.0
2016-Feb-09 02:19N 38°13' E 015°38'6 7.5
2016-Feb-09 01:33N 38°09' E 015°34'5 5.1
2016-Feb-09 00:33N 38°13' E 015°37'6 6.2
2016-Feb-08 23:33N 38°08' E 015°32'6 5.9
2016-Feb-08 22:33N 38°13' E 015°36'6 6.2
2016-Feb-08 21:33N 38°08' E 015°32'7 7.2
2016-Feb-08 20:33N 38°13' E 015°38'5 4.7
2016-Feb-08 19:34N 38°10' E 015°34'1 0.6
2016-Feb-08 18:34N 38°09' E 015°33'4 3.8
2016-Feb-08 17:33N 38°12' E 015°37'4 3.8
2016-Feb-08 16:33N 38°10' E 015°33'5 5.4
2016-Feb-08 15:33N 38°13' E 015°38'7 6.7
2016-Feb-08 14:33N 38°08' E 015°32'4 4.3
2016-Feb-08 13:33N 38°13' E 015°34'3 0.1
2016-Feb-07 02:24N 38°14' E 015°37'1 0.6
2016-Feb-07 00:33N 38°13' E 015°36'0 0.2
2016-Feb-06 22:33N 38°13' E 015°37'1 0.5
2016-Feb-06 20:33N 38°13' E 015°38'6 5.5
2016-Feb-06 19:29N 38°08' E 015°34'4 4.3
2016-Feb-06 18:30N 38°12' E 015°36'2 1.0
2016-Feb-06 16:32N 38°11' E 015°35'3 3.3
2016-Feb-06 15:33N 38°13' E 015°38'5 4.0
2016-Feb-06 14:20N 38°09' E 015°34'5 6.4
2016-Feb-06 13:30N 38°13' E 015°38'3 1.6
2016-Feb-06 11:33N 38°11' E 015°35'2 0.8
2016-Feb-06 09:33N 38°10' E 015°34'5 3.8
2016-Feb-06 08:19N 38°13' E 015°38'0 0.0
2016-Feb-06 07:32N 38°13' E 015°38'0 0.0
2016-Feb-06 02:11N 38°13' E 015°38'1 0.5
2016-Feb-06 00:33N 38°13' E 015°37'5 4.8
2016-Feb-05 23:27N 38°08' E 015°34'5 6.0
2016-Feb-05 22:33N 38°13' E 015°37'6 4.1
2016-Feb-05 21:08N 38°09' E 015°33'610.6
2016-Feb-05 20:33N 38°13' E 015°38'5 5.2
2016-Feb-05 19:33N 38°09' E 015°35'2 2.3
2016-Feb-05 18:33N 38°11' E 015°35'2 1.7
2016-Feb-05 17:33N 38°11' E 015°37'3 3.0
2016-Feb-05 16:30N 38°09' E 015°34'5 5.4
2016-Feb-05 15:33N 38°13' E 015°38'7 5.7
2016-Feb-05 14:23N 38°08' E 015°32'7 8.2
2016-Feb-05 13:32N 38°13' E 015°38'6 6.1
2016-Feb-05 12:33N 38°08' E 015°33'5 4.8
2016-Feb-05 11:32N 38°13' E 015°36'0 0.2
2016-Feb-05 09:23N 38°13' E 015°37'4 4.7
2016-Feb-05 08:27N 38°09' E 015°35'2 2.6
2016-Feb-05 07:33N 38°11' E 015°35'3 0.2
2016-Feb-04 18:21N 38°13' E 015°38'4 2.2
2016-Feb-04 16:30N 38°10' E 015°34'4 3.9
2016-Feb-04 15:33N 38°13' E 015°38'4 2.6
2016-Feb-04 14:07N 38°10' E 015°34'4 7.4
2016-Feb-04 13:33N 38°13' E 015°38'2 0.7
2016-Feb-04 11:25N 38°13' E 015°36'3 1.5
2016-Feb-04 09:33N 38°10' E 015°35'0 0.1
2016-Feb-04 07:32N 38°10' E 015°35'2 0.1
2016-Feb-03 17:32N 38°09' E 015°36'2 1.8
2016-Feb-03 16:33N 38°10' E 015°34'5 4.9
2016-Feb-03 15:33N 38°13' E 015°38'7 5.6
2016-Feb-03 14:19N 38°08' E 015°32'7 8.9
2016-Feb-03 13:33N 38°13' E 015°38'5 4.6
2016-Feb-03 12:30N 38°09' E 015°35'2 1.7
2016-Feb-03 11:33N 38°10' E 015°35'1 0.4
2016-Feb-03 09:32N 38°10' E 015°34'3 2.7
2016-Feb-03 08:30N 38°11' E 015°37'2 2.5
2016-Feb-03 07:32N 38°10' E 015°34'2 0.1
2016-Feb-02 19:32N 38°09' E 015°36'2 1.7
2016-Feb-02 18:33N 38°10' E 015°34'4 4.0
2016-Feb-02 17:33N 38°13' E 015°38'6 5.4
2016-Feb-02 16:29N 38°09' E 015°33'6 6.7
2016-Feb-02 15:33N 38°13' E 015°38'7 7.5
2016-Feb-02 14:33N 38°08' E 015°31'7 6.5
2016-Feb-02 13:24N 38°13' E 015°38'5 5.3
2016-Feb-02 12:33N 38°09' E 015°36'2 2.2
2016-Feb-02 11:33N 38°11' E 015°35'2 2.4
2016-Feb-02 10:33N 38°09' E 015°36'2 2.3
2016-Feb-02 09:33N 38°11' E 015°35'2 2.2
2016-Feb-02 08:33N 38°09' E 015°36'2 2.0
2016-Feb-02 07:33N 38°11' E 015°35'4 0.7
2016-Feb-02 02:33N 38°13' E 015°38'7 7.1
2016-Feb-02 01:31N 38°08' E 015°31'7 7.7
2016-Feb-02 00:33N 38°13' E 015°38'6 5.2
2016-Feb-01 23:19N 38°08' E 015°32'7 8.7
2016-Feb-01 22:33N 38°13' E 015°38'7 7.1
2016-Feb-01 21:30N 38°08' E 015°31'7 7.7
2016-Feb-01 20:33N 38°13' E 015°38'7 5.2
2016-Feb-01 19:11N 38°08' E 015°32'711.1
2016-Feb-01 18:33N 38°13' E 015°38'6 5.7
2016-Feb-01 17:33N 38°09' E 015°34'1 0.6
2016-Feb-01 16:31N 38°09' E 015°33'6 5.8
2016-Feb-01 15:33N 38°13' E 015°38'7 5.4
2016-Feb-01 14:18N 38°08' E 015°32'7 9.4
2016-Feb-01 13:33N 38°13' E 015°38'4 3.9
2016-Feb-01 12:33N 38°10' E 015°36'2 1.7
2016-Feb-01 11:33N 38°11' E 015°35'2 1.7
2016-Feb-01 10:33N 38°11' E 015°37'2 2.3
2016-Feb-01 09:32N 38°10' E 015°34'  
Track history (hours):
 
Tides and Currents Weather Stations Pressure Air Temp Water Temp Dewpoint Dewpoint Depression Visibility Wind Speed Wind Dir Waves Ship Positions

Archimede

Last reported at 2016-Feb-10 21:33 UTC. Time now 2016-Feb-10 22:03 UTC.
Position N 38°08' E 015°31'.

; draft 3.1 m.

Type: Passenger vessel. MMSI: 247054700.

Date/timePositionNaut miles runAvg speedWind from/ knotsBaromVisibWave heightAir tempDewpointWater temp
2016-Feb-10 21:33N 38°08' E 015°31'7 7.5
2016-Feb-10 20:33N 38°13' E 015°38'3 2.7
2016-Feb-10 19:33N 38°11' E 015°37'3 2.7
2016-Feb-10 18:33N 38°10' E 015°34'3 3.4
2016-Feb-10 17:33N 38°12' E 015°37'4 4.1
2016-Feb-10 16:33N 38°09' E 015°33'6 5.7
2016-Feb-10 15:33N 38°13' E 015°38'7 7.5
2016-Feb-10 14:33N 38°08' E 015°31'7 7.4
2016-Feb-10 13:33N 38°13' E 015°38'6 6.2
2016-Feb-10 12:33N 38°09' E 015°33'5 4.8
2016-Feb-10 11:33N 38°13' E 015°36'4 3.8
2016-Feb-10 10:33N 38°09' E 015°34'2 1.8
2016-Feb-10 09:33N 38°11' E 015°35'1 0.6
2016-Feb-10 08:33N 38°10' E 015°35'1 0.7
2016-Feb-10 07:33N 38°10' E 015°34'4 0.8
2016-Feb-10 02:08N 38°13' E 015°38'5 8.6
2016-Feb-10 01:33N 38°09' E 015°34'4 4.4
2016-Feb-10 00:33N 38°13' E 015°37'6 5.6
2016-Feb-09 23:33N 38°08' E 015°33'5 5.0
2016-Feb-09 22:33N 38°13' E 015°36'5 5.4
2016-Feb-09 21:33N 38°08' E 015°32'7 6.8
2016-Feb-09 20:33N 38°13' E 015°38'4 3.8
2016-Feb-09 19:33N 38°10' E 015°35'1 1.0
2016-Feb-09 18:33N 38°11' E 015°35'1 1.1
2016-Feb-09 17:33N 38°11' E 015°36'2 2.3
2016-Feb-09 16:33N 38°09' E 015°34'5 5.1
2016-Feb-09 15:33N 38°13' E 015°38'7 7.3
2016-Feb-09 14:33N 38°08' E 015°31'7 7.6
2016-Feb-09 13:33N 38°13' E 015°38'7 6.8
2016-Feb-09 12:33N 38°08' E 015°32'6 6.1
2016-Feb-09 11:33N 38°13' E 015°37'5 4.7
2016-Feb-09 10:33N 38°09' E 015°34'3 2.8
2016-Feb-09 09:33N 38°12' E 015°35'2 2.0
2016-Feb-09 08:33N 38°09' E 015°36'1 1.3
2016-Feb-09 07:33N 38°10' E 015°34'5 4.7
2016-Feb-09 06:32N 38°13' E 015°38'0 0.0
2016-Feb-09 02:19N 38°13' E 015°38'6 7.5
2016-Feb-09 01:33N 38°09' E 015°34'5 5.1
2016-Feb-09 00:33N 38°13' E 015°37'6 6.2
2016-Feb-08 23:33N 38°08' E 015°32'6 5.9
2016-Feb-08 22:33N 38°13' E 015°36'6 6.2
2016-Feb-08 21:33N 38°08' E 015°32'7 7.2
2016-Feb-08 20:33N 38°13' E 015°38'5 4.7
2016-Feb-08 19:34N 38°10' E 015°34'1 0.6
2016-Feb-08 18:34N 38°09' E 015°33'4 3.8
2016-Feb-08 17:33N 38°12' E 015°37'4 3.8
2016-Feb-08 16:33N 38°10' E 015°33'5 5.4
2016-Feb-08 15:33N 38°13' E 015°38'7 6.7
2016-Feb-08 14:33N 38°08' E 015°32'4 4.3
2016-Feb-08 13:33N 38°13' E 015°34'3 0.1
2016-Feb-07 02:24N 38°14' E 015°37'1 0.6
2016-Feb-07 00:33N 38°13' E 015°36'0 0.2
2016-Feb-06 22:33N 38°13' E 015°37'1 0.5
2016-Feb-06 20:33N 38°13' E 015°38'6 5.5
2016-Feb-06 19:29N 38°08' E 015°34'4 4.3
2016-Feb-06 18:30N 38°12' E 015°36'2 1.0
2016-Feb-06 16:32N 38°11' E 015°35'3 3.3
2016-Feb-06 15:33N 38°13' E 015°38'5 4.0
2016-Feb-06 14:20N 38°09' E 015°34'5 6.4
2016-Feb-06 13:30N 38°13' E 015°38'3 1.6
2016-Feb-06 11:33N 38°11' E 015°35'2 0.8
2016-Feb-06 09:33N 38°10' E 015°34'5 3.8
2016-Feb-06 08:19N 38°13' E 015°38'0 0.0
2016-Feb-06 07:32N 38°13' E 015°38'0 0.0
2016-Feb-06 02:11N 38°13' E 015°38'1 0.5
2016-Feb-06 00:33N 38°13' E 015°37'5 4.8
2016-Feb-05 23:27N 38°08' E 015°34'5 6.0
2016-Feb-05 22:33N 38°13' E 015°37'6 4.1
2016-Feb-05 21:08N 38°09' E 015°33'610.6
2016-Feb-05 20:33N 38°13' E 015°38'5 5.2
2016-Feb-05 19:33N 38°09' E 015°35'2 2.3
2016-Feb-05 18:33N 38°11' E 015°35'2 1.7
2016-Feb-05 17:33N 38°11' E 015°37'3 3.0
2016-Feb-05 16:30N 38°09' E 015°34'5 5.4
2016-Feb-05 15:33N 38°13' E 015°38'7 5.7
2016-Feb-05 14:23N 38°08' E 015°32'7 8.2
2016-Feb-05 13:32N 38°13' E 015°38'6 6.1
2016-Feb-05 12:33N 38°08' E 015°33'5 4.8
2016-Feb-05 11:32N 38°13' E 015°36'0 0.2
2016-Feb-05 09:23N 38°13' E 015°37'4 4.7
2016-Feb-05 08:27N 38°09' E 015°35'2 2.6
2016-Feb-05 07:33N 38°11' E 015°35'3 0.2
2016-Feb-04 18:21N 38°13' E 015°38'4 2.2
2016-Feb-04 16:30N 38°10' E 015°34'4 3.9
2016-Feb-04 15:33N 38°13' E 015°38'4 2.6
2016-Feb-04 14:07N 38°10' E 015°34'4 7.4
2016-Feb-04 13:33N 38°13' E 015°38'2 0.7
2016-Feb-04 11:25N 38°13' E 015°36'3 1.5
2016-Feb-04 09:33N 38°10' E 015°35'0 0.1
2016-Feb-04 07:32N 38°10' E 015°35'2 0.1
2016-Feb-03 17:32N 38°09' E 015°36'2 1.8
2016-Feb-03 16:33N 38°10' E 015°34'5 4.9
2016-Feb-03 15:33N 38°13' E 015°38'7 5.6
2016-Feb-03 14:19N 38°08' E 015°32'7 8.9
2016-Feb-03 13:33N 38°13' E 015°38'5 4.6
2016-Feb-03 12:30N 38°09' E 015°35'2 1.7
2016-Feb-03 11:33N 38°10' E 015°35'1 0.4
2016-Feb-03 09:32N 38°10' E 015°34'3 2.7
2016-Feb-03 08:30N 38°11' E 015°37'2 2.5
2016-Feb-03 07:32N 38°10' E 015°34'2 0.1
2016-Feb-02 19:32N 38°09' E 015°36'2 1.7
2016-Feb-02 18:33N 38°10' E 015°34'4 4.0
2016-Feb-02 17:33N 38°13' E 015°38'6 5.4
2016-Feb-02 16:29N 38°09' E 015°33'6 6.7
2016-Feb-02 15:33N 38°13' E 015°38'7 7.5
2016-Feb-02 14:33N 38°08' E 015°31'7 6.5
2016-Feb-02 13:24N 38°13' E 015°38'5 5.3
2016-Feb-02 12:33N 38°09' E 015°36'2 2.2
2016-Feb-02 11:33N 38°11' E 015°35'2 2.4
2016-Feb-02 10:33N 38°09' E 015°36'2 2.3
2016-Feb-02 09:33N 38°11' E 015°35'2 2.2
2016-Feb-02 08:33N 38°09' E 015°36'2 2.0
2016-Feb-02 07:33N 38°11' E 015°35'4 0.7
2016-Feb-02 02:33N 38°13' E 015°38'7 7.1
2016-Feb-02 01:31N 38°08' E 015°31'7 7.7
2016-Feb-02 00:33N 38°13' E 015°38'6 5.2
2016-Feb-01 23:19N 38°08' E 015°32'7 8.7
2016-Feb-01 22:33N 38°13' E 015°38'7 7.1
2016-Feb-01 21:30N 38°08' E 015°31'7 7.7
2016-Feb-01 20:33N 38°13' E 015°38'7 5.2
2016-Feb-01 19:11N 38°08' E 015°32'711.1
2016-Feb-01 18:33N 38°13' E 015°38'6 5.7
2016-Feb-01 17:33N 38°09' E 015°34'1 0.6
2016-Feb-01 16:31N 38°09' E 015°33'6 5.8
2016-Feb-01 15:33N 38°13' E 015°38'7 5.4
2016-Feb-01 14:18N 38°08' E 015°32'7 9.4
2016-Feb-01 13:33N 38°13' E 015°38'4 3.9
2016-Feb-01 12:33N 38°10' E 015°36'2 1.7
2016-Feb-01 11:33N 38°11' E 015°35'2 1.7
2016-Feb-01 10:33N 38°11' E 015°37'2 2.3
2016-Feb-01 09:32N 38°10' E 015°34'  

Dump ship's entire track history